Weather at Robert L. Bradshaw International Airport

Public forecast

Using degrees Celsius for public forecast. Weather courtesy of forecast.io.

Current aviation weather report (METAR) for Robert L. Bradshaw International Airport

Retrieved 2021/04/20 20:00 UTC (21 minutes ago):

TKPK 202000Z 08012KT 9999 FEW022 29/23 Q1017

Aviation forecast (TAF) for Robert L. Bradshaw International Airport

Retrieved 2021/04/20 18:45 UTC (2 hours ago):

TAF TKPK 201736Z 2018/2118 08015KT P6SM FEW018 AMD NOT SKED 2102/2111